Time;durP1;ratioP1;P1;durP2;ratioP2;P2;SDS_P1;SDS_P2;PMS_P1;PMS_P2;Temp;Humidity;BMP_temperature;BMP_pressure;BME280_temperature;BME280_humidity;BME280_pressure;Samples;Min_cycle;Max_cycle;Signal;HPM_P1;HPM_P2
2022/05/02 00:00:31;;;;;;;;;;;;;;;;;;5041517;28;19909;-77
2022/05/02 00:03:18;;;;;;;;;;;;;;;;;;5036686;28;19913;-75
2022/05/02 00:06:07;;;;;;;;;;;;;;;;;;5051457;28;19912;-74
2022/05/02 00:08:53;;;;;;;;;;;;;;;;;;5052808;28;20116;-77
2022/05/02 00:11:40;;;;;;;;;;;;;;;;;;5029887;28;19913;-75
2022/05/02 00:14:26;;;;;;;;;;;;;;;;;;5033561;28;19932;-76
2022/05/02 00:17:13;;;;;;;;;;;;;;;;;;5044106;28;20257;-75
2022/05/02 00:19:59;;;;;;;;;;;;;;;;;;5040677;28;19920;-75
2022/05/02 00:22:46;;;;;;;;;;;;;;;;;;5045008;28;19917;-76
2022/05/02 00:25:32;;;;;;;;;;;;;;;;;;5025216;28;19909;-75
2022/05/02 00:28:19;;;;;;;;;;;;;;;;;;5041055;28;19909;-76
2022/05/02 00:31:05;;;;;;;;;;;;;;;;;;5044852;28;19909;-76
2022/05/02 00:33:51;;;;;;;;;;;;;;;;;;5048594;28;19921;-76
2022/05/02 00:36:38;;;;;;;;;;;;;;;;;;5036815;28;19920;-75
2022/05/02 00:39:24;;;;;;;;;;;;;;;;;;5042534;28;19923;-75
2022/05/02 00:42:11;;;;;;;;;;;;;;;;;;5035962;28;19916;-76
2022/05/02 00:44:57;;;;;;;;;;;;;;;;;;5038186;28;19975;-77
2022/05/02 00:47:44;;;;;;;;;;;;;;;;;;5035946;28;19913;-77
2022/05/02 00:50:30;;;;;;;;;;;;;;;;;;5041097;28;20395;-75
2022/05/02 00:53:17;;;;;;;;;;;;;;;;;;5040689;28;19932;-77
2022/05/02 00:56:03;;;;;;;;;;;;;;;;;;5034573;28;20285;-76
2022/05/02 00:58:50;;;;;;;;;;;;;;;;;;5045699;28;19916;-76
2022/05/02 01:01:37;;;;;;;;;;;;;;;;;;5056493;28;19916;-76
2022/05/02 01:04:23;;;;;;;;;;;;;;;;;;5049074;28;20301;-76
2022/05/02 01:07:10;;;;;;;;;;;;;;;;;;5041120;28;19920;-77
2022/05/02 01:09:56;;;;;;;;;;;;;;;;;;5034529;28;19936;-77
2022/05/02 01:12:43;;;;;;;;;;;;;;;;;;5039493;28;19928;-76
2022/05/02 01:15:29;;;;;;;;;;;;;;;;;;5044028;28;19920;-77
2022/05/02 01:18:16;;;;;;;;;;;;;;;;;;5039714;28;20328;-76
2022/05/02 01:21:02;;;;;;;;;;;;;;;;;;5048553;28;19917;-77
2022/05/02 01:23:49;;;;;;;;;;;;;;;;;;5040955;28;20365;-77
2022/05/02 01:26:35;;;;;;;;;;;;;;;;;;5051856;28;20509;-76
2022/05/02 01:29:22;;;;;;;;;;;;;;;;;;5058486;28;19916;-77
2022/05/02 01:32:08;;;;;;;;;;;;;;;;;;5054163;28;19943;-77
2022/05/02 01:34:54;;;;;;;;;;;;;;;;;;5042582;28;19914;-77
2022/05/02 01:37:41;;;;;;;;;;;;;;;;;;5046796;28;19920;-77
2022/05/02 01:40:27;;;;;;;;;;;;;;;;;;5045203;28;19913;-77
2022/05/02 01:43:14;;;;;;;;;;;;;;;;;;5032825;28;20308;-77
2022/05/02 01:46:00;;;;;;;;;;;;;;;;;;5046032;28;19913;-76
2022/05/02 01:48:47;;;;;;;;;;;;;;;;;;5041798;28;19920;-76
2022/05/02 01:51:33;;;;;;;;;;;;;;;;;;5040301;28;19920;-76
2022/05/02 01:54:20;;;;;;;;;;;;;;;;;;5033257;28;19923;-75
2022/05/02 01:57:06;;;;;;;;;;;;;;;;;;5043472;28;19912;-77
2022/05/02 01:59:53;;;;;;;;;;;;;;;;;;5033727;28;19920;-76
2022/05/02 02:02:39;;;;;;;;;;;;;;;;;;5044751;28;19909;-76
2022/05/02 02:08:31;;;;;;;;;;;;;;;;;;5044040;28;20320;-76
2022/05/02 02:11:17;;;;;;;;;;;;;;;;;;5039611;28;20288;-77
2022/05/02 02:14:04;;;;;;;;;;;;;;;;;;5043623;28;19921;-75
2022/05/02 02:16:51;;;;;;;;;;;;;;;;;;5057801;28;19913;-75
2022/05/02 02:19:37;;;;;;;;;;;;;;;;;;5037994;28;19914;-75
2022/05/02 02:22:24;;;;;;;;;;;;;;;;;;5032922;28;19916;-75
2022/05/02 02:25:10;;;;;;;;;;;;;;;;;;5035650;28;19908;-77
2022/05/02 02:27:56;;;;;;;;;;;;;;;;;;5048563;28;19916;-76
2022/05/02 02:30:43;;;;;;;;;;;;;;;;;;5040153;28;19913;-76
2022/05/02 02:33:29;;;;;;;;;;;;;;;;;;5047071;28;19921;-76
2022/05/02 02:36:16;;;;;;;;;;;;;;;;;;5057143;28;20393;-75
2022/05/02 02:39:02;;;;;;;;;;;;;;;;;;5049828;28;19913;-75
2022/05/02 02:41:49;;;;;;;;;;;;;;;;;;5034347;28;19917;-75
2022/05/02 02:44:35;;;;;;;;;;;;;;;;;;5034144;28;19932;-75
2022/05/02 02:47:22;;;;;;;;;;;;;;;;;;5047351;28;19920;-75
2022/05/02 02:50:08;;;;;;;;;;;;;;;;;;5054205;28;19921;-75
2022/05/02 02:52:55;;;;;;;;;;;;;;;;;;5045314;28;19939;-75
2022/05/02 02:55:42;;;;;;;;;;;;;;;;;;5034170;28;19933;-75
2022/05/02 02:58:28;;;;;;;;;;;;;;;;;;5046650;28;20266;-76
2022/05/02 03:01:15;;;;;;;;;;;;;;;;;;5043615;28;20030;-76
2022/05/02 03:06:01;;;;;;;;;;;;;;;;;;5032627;28;20374;-75
2022/05/02 03:07:08;;;;;;;;;;;;;;;;;;5041090;28;19912;-74
2022/05/02 03:09:54;;;;;;;;;;;;;;;;;;5044462;28;19917;-75
2022/05/02 03:12:41;;;;;;;;;;;;;;;;;;5044481;28;19924;-76
2022/05/02 03:15:27;;;;;;;;;;;;;;;;;;5046705;28;20685;-75
2022/05/02 03:18:17;;;;;;;;;;;;;;;;;;5036314;28;19976;-74
2022/05/02 03:21:06;;;;;;;;;;;;;;;;;;5033153;28;19913;-75
2022/05/02 03:23:53;;;;;;;;;;;;;;;;;;5025955;28;20381;-76
2022/05/02 03:26:39;;;;;;;;;;;;;;;;;;5031292;28;19919;-74
2022/05/02 03:29:26;;;;;;;;;;;;;;;;;;5039071;28;20288;-74
2022/05/02 03:32:12;;;;;;;;;;;;;;;;;;5036750;28;19917;-74
2022/05/02 03:34:59;;;;;;;;;;;;;;;;;;5032951;28;19921;-75
2022/05/02 03:37:45;;;;;;;;;;;;;;;;;;5036760;28;19924;-76
2022/05/02 03:40:32;;;;;;;;;;;;;;;;;;5032495;28;20384;-75
2022/05/02 03:43:18;;;;;;;;;;;;;;;;;;5034801;28;19938;-75
2022/05/02 03:46:05;;;;;;;;;;;;;;;;;;5047702;28;20468;-75
2022/05/02 03:48:51;;;;;;;;;;;;;;;;;;5030914;28;20470;-75
2022/05/02 03:51:37;;;;;;;;;;;;;;;;;;5031579;28;20297;-75
2022/05/02 03:54:24;;;;;;;;;;;;;;;;;;5034145;28;19921;-75
2022/05/02 03:57:10;;;;;;;;;;;;;;;;;;5034903;28;20297;-73
2022/05/02 03:59:57;;;;;;;;;;;;;;;;;;5044299;28;19928;-74
2022/05/02 04:02:43;;;;;;;;;;;;;;;;;;5030187;28;19913;-75
2022/05/02 04:05:30;;;;;;;;;;;;;;;;;;5032887;28;20393;-74
2022/05/02 04:08:16;;;;;;;;;;;;;;;;;;5039817;28;19909;-73
2022/05/02 04:11:03;;;;;;;;;;;;;;;;;;5041426;28;19924;-74
2022/05/02 04:13:50;;;;;;;;;;;;;;;;;;5038681;28;20341;-75
2022/05/02 04:16:36;;;;;;;;;;;;;;;;;;5035467;28;19959;-74
2022/05/02 04:19:23;;;;;;;;;;;;;;;;;;5040134;28;19920;-74
2022/05/02 04:22:09;;;;;;;;;;;;;;;;;;5046195;28;19916;-75
2022/05/02 04:24:56;;;;;;;;;;;;;;;;;;5042440;28;19909;-74
2022/05/02 04:27:43;;;;;;;;;;;;;;;;;;5042966;28;20639;-74
2022/05/02 04:30:29;;;;;;;;;;;;;;;;;;5033334;28;20376;-74
2022/05/02 04:33:16;;;;;;;;;;;;;;;;;;5049122;28;19928;-74
2022/05/02 04:36:02;;;;;;;;;;;;;;;;;;5038719;28;19935;-75
2022/05/02 04:38:49;;;;;;;;;;;;;;;;;;5045716;28;19923;-75
2022/05/02 04:41:35;;;;;;;;;;;;;;;;;;5049677;28;20017;-75
2022/05/02 04:44:22;;;;;;;;;;;;;;;;;;5050326;28;19914;-74
2022/05/02 04:47:08;;;;;;;;;;;;;;;;;;5043195;28;20296;-74
2022/05/02 04:49:55;;;;;;;;;;;;;;;;;;5037754;28;19921;-74
2022/05/02 04:52:41;;;;;;;;;;;;;;;;;;5047774;28;20265;-75
2022/05/02 04:55:28;;;;;;;;;;;;;;;;;;5048978;28;19913;-75
2022/05/02 04:58:14;;;;;;;;;;;;;;;;;;5041276;28;19931;-74
2022/05/02 05:01:01;;;;;;;;;;;;;;;;;;5052820;28;19935;-74
2022/05/02 05:03:47;;;;;;;;;;;;;;;;;;5042535;28;19909;-74
2022/05/02 05:06:34;;;;;;;;;;;;;;;;;;5040612;28;19909;-75
2022/05/02 05:09:20;;;;;;;;;;;;;;;;;;5040441;28;20340;-75
2022/05/02 05:12:07;;;;;;;;;;;;;;;;;;5063615;28;20361;-74
2022/05/02 05:17:58;;;;;;;;;;;;;;;;;;5052589;28;19928;-75
2022/05/02 05:20:45;;;;;;;;;;;;;;;;;;5043147;28;19915;-75
2022/05/02 05:23:31;;;;;;;;;;;;;;;;;;5061265;28;19988;-74
2022/05/02 05:26:18;;;;;;;;;;;;;;;;;;5046211;28;20399;-75
2022/05/02 05:29:04;;;;;;;;;;;;;;;;;;5044567;28;19932;-75
2022/05/02 05:31:51;;;;;;;;;;;;;;;;;;5049387;28;19920;-74
2022/05/02 05:34:38;;;;;;;;;;;;;;;;;;5042883;28;19928;-74
2022/05/02 05:37:26;;;;;;;;;;;;;;;;;;5046851;28;20708;-73
2022/05/02 05:40:13;;;;;;;;;;;;;;;;;;5042885;28;19962;-74
2022/05/02 05:42:59;;;;;;;;;;;;;;;;;;5045651;28;19913;-73
2022/05/02 05:45:46;;;;;;;;;;;;;;;;;;5039633;28;19917;-74
2022/05/02 05:48:33;;;;;;;;;;;;;;;;;;5058075;28;19919;-76
2022/05/02 05:51:19;;;;;;;;;;;;;;;;;;5037748;28;19913;-77
2022/05/02 05:54:06;;;;;;;;;;;;;;;;;;5036538;28;19921;-75
2022/05/02 05:56:52;;;;;;;;;;;;;;;;;;5034135;28;19920;-75
2022/05/02 05:59:39;;;;;;;;;;;;;;;;;;5042214;28;20365;-75
2022/05/02 06:02:25;;;;;;;;;;;;;;;;;;5042792;28;19913;-76
2022/05/02 06:05:11;;;;;;;;;;;;;;;;;;5040583;28;19919;-75
2022/05/02 06:07:58;;;;;;;;;;;;;;;;;;5040909;28;19925;-78
2022/05/02 06:10:44;;;;;;;;;;;;;;;;;;5047290;28;19916;-75
2022/05/02 06:13:31;;;;;;;;;;;;;;;;;;5044813;28;19928;-74
2022/05/02 06:19:23;;;;;;;;;;;;;;;;;;5040687;28;19916;-74
2022/05/02 06:22:09;;;;;;;;;;;;;;;;;;5041160;28;19944;-75
2022/05/02 06:24:56;;;;;;;;;;;;;;;;;;5046165;28;19921;-73
2022/05/02 06:27:43;;;;;;;;;;;;;;;;;;5047298;28;19909;-73
2022/05/02 06:30:29;;;;;;;;;;;;;;;;;;5040781;28;19917;-73
2022/05/02 06:33:16;;;;;;;;;;;;;;;;;;5052014;28;19932;-73
2022/05/02 06:36:02;;;;;;;;;;;;;;;;;;5052179;28;19913;-74
2022/05/02 06:38:49;;;;;;;;;;;;;;;;;;5050706;28;19909;-75
2022/05/02 06:41:35;;;;;;;;;;;;;;;;;;5050692;28;19916;-74
2022/05/02 06:44:21;;;;;;;;;;;;;;;;;;5057602;28;19909;-74
2022/05/02 06:47:08;;;;;;;;;;;;;;;;;;5054184;28;19924;-73
2022/05/02 06:49:54;;;;;;;;;;;;;;;;;;5049867;28;19936;-74
2022/05/02 06:52:41;;;;;;;;;;;;;;;;;;5058692;28;20365;-74
2022/05/02 06:55:28;;;;;;;;;;;;;;;;;;5036572;28;19923;-73
2022/05/02 06:58:14;;;;;;;;;;;;;;;;;;5045763;28;20492;-74
2022/05/02 07:01:01;;;;;;;;;;;;;;;;;;5039163;28;19920;-74
2022/05/02 07:03:47;;;;;;;;;;;;;;;;;;5047207;28;19923;-75
2022/05/02 07:06:34;;;;;;;;;;;;;;;;;;5051639;28;20604;-74
2022/05/02 07:09:20;;;;;;;;;;;;;;;;;;5042727;28;19910;-74
2022/05/02 07:12:07;;;;;;;;;;;;;;;;;;5056093;28;19928;-75
2022/05/02 07:14:53;;;;;;;;;;;;;;;;;;5041055;28;19925;-74
2022/05/02 07:17:40;;;;;;;;;;;;;;;;;;5037769;28;19919;-74
2022/05/02 07:20:26;;;;;;;;;;;;;;;;;;5044149;28;19916;-74
2022/05/02 07:23:12;;;;;;;;;;;;;;;;;;5045911;28;19920;-74
2022/05/02 07:25:59;;;;;;;;;;;;;;;;;;5041828;28;20284;-74
2022/05/02 07:28:45;;;;;;;;;;;;;;;;;;5045737;28;19913;-73
2022/05/02 07:31:32;;;;;;;;;;;;;;;;;;5056529;28;19913;-74
2022/05/02 07:34:18;;;;;;;;;;;;;;;;;;5045462;28;19925;-74
2022/05/02 07:37:05;;;;;;;;;;;;;;;;;;5036509;28;19936;-76
2022/05/02 07:39:51;;;;;;;;;;;;;;;;;;5050647;28;19924;-75
2022/05/02 07:42:41;;;;;;;;;;;;;;;;;;5035035;28;19920;-73
2022/05/02 07:45:30;;;;;;;;;;;;;;;;;;5058189;28;19909;-75
2022/05/02 07:48:20;;;;;;;;;;;;;;;;;;5045289;28;20578;-74
2022/05/02 07:51:06;;;;;;;;;;;;;;;;;;5048154;28;19916;-73
2022/05/02 07:53:53;;;;;;;;;;;;;;;;;;5047103;28;19916;-75
2022/05/02 07:56:39;;;;;;;;;;;;;;;;;;5026223;28;19923;-75
2022/05/02 07:59:26;;;;;;;;;;;;;;;;;;5035411;28;19919;-73
2022/05/02 08:02:22;;;;;;;;;;;;;;;;;;5045002;28;20281;-75
2022/05/02 08:05:08;;;;;;;;;;;;;;;;;;5037674;28;20320;-75
2022/05/02 08:07:55;;;;;;;;;;;;;;;;;;5035001;28;19909;-74
2022/05/02 08:10:41;;;;;;;;;;;;;;;;;;5035260;28;19916;-74
2022/05/02 08:13:28;;;;;;;;;;;;;;;;;;5045906;28;19928;-74
2022/05/02 08:16:14;;;;;;;;;;;;;;;;;;5041746;28;19908;-74
2022/05/02 08:19:00;;;;;;;;;;;;;;;;;;5048655;28;20384;-74
2022/05/02 08:21:47;;;;;;;;;;;;;;;;;;5041747;28;19928;-75
2022/05/02 08:27:43;;;;;;;;;;;;;;;;;;5033249;28;19932;-74
2022/05/02 08:30:29;;;;;;;;;;;;;;;;;;5035764;28;19913;-74
2022/05/02 08:33:16;;;;;;;;;;;;;;;;;;5045307;28;19921;-74
2022/05/02 08:36:03;;;;;;;;;;;;;;;;;;5047014;28;19915;-74
2022/05/02 08:38:49;;;;;;;;;;;;;;;;;;5061694;28;19915;-74
2022/05/02 08:41:36;;;;;;;;;;;;;;;;;;5047648;28;20285;-74
2022/05/02 08:44:22;;;;;;;;;;;;;;;;;;5031241;28;19917;-76
2022/05/02 08:47:08;;;;;;;;;;;;;;;;;;5042727;28;19920;-74
2022/05/02 08:49:55;;;;;;;;;;;;;;;;;;5042639;28;19972;-74
2022/05/02 08:52:41;;;;;;;;;;;;;;;;;;5035776;28;19917;-73
2022/05/02 08:55:28;;;;;;;;;;;;;;;;;;5042494;28;19928;-73
2022/05/02 08:58:14;;;;;;;;;;;;;;;;;;5043989;28;19946;-75
2022/05/02 09:01:01;;;;;;;;;;;;;;;;;;5041625;28;19909;-73
2022/05/02 09:03:47;;;;;;;;;;;;;;;;;;5037612;28;19916;-75
2022/05/02 09:06:34;;;;;;;;;;;;;;;;;;5030013;28;20569;-74
2022/05/02 09:09:20;;;;;;;;;;;;;;;;;;5031338;28;19916;-74
2022/05/02 09:12:07;;;;;;;;;;;;;;;;;;5037149;28;19913;-74
2022/05/02 09:14:53;;;;;;;;;;;;;;;;;;5041009;28;19925;-73
2022/05/02 09:17:40;;;;;;;;;;;;;;;;;;5034315;28;19923;-72
2022/05/02 09:20:26;;;;;;;;;;;;;;;;;;5044716;28;20371;-74
2022/05/02 09:23:13;;;;;;;;;;;;;;;;;;5039229;28;19928;-74
2022/05/02 09:25:59;;;;;;;;;;;;;;;;;;5039781;28;20376;-74
2022/05/02 09:28:45;;;;;;;;;;;;;;;;;;5030348;28;19913;-74
2022/05/02 09:31:32;;;;;;;;;;;;;;;;;;5042496;28;20365;-74
2022/05/02 09:34:19;;;;;;;;;;;;;;;;;;5047934;28;19924;-73
2022/05/02 09:37:05;;;;;;;;;;;;;;;;;;5036477;28;19909;-74
2022/05/02 09:39:51;;;;;;;;;;;;;;;;;;5034121;28;19914;-74
2022/05/02 09:42:38;;;;;;;;;;;;;;;;;;5028271;28;19919;-76
2022/05/02 09:51:36;;;;;;;;;;;;;;;;;;5033801;28;19924;-74
2022/05/02 09:56:37;;;;;;;;;;;;;;;;;;5035940;28;19921;-76
2022/05/02 09:57:28;;;;;;;;;;;;;;;;;;5041220;28;19917;-74
2022/05/02 10:03:20;;;;;;;;;;;;;;;;;;5036567;28;19932;-75
2022/05/02 10:06:07;;;;;;;;;;;;;;;;;;5035266;28;19909;-75
2022/05/02 10:08:54;;;;;;;;;;;;;;;;;;5031842;28;20357;-74
2022/05/02 10:11:40;;;;;;;;;;;;;;;;;;5038252;28;19915;-74
2022/05/02 10:14:27;;;;;;;;;;;;;;;;;;5042645;28;19927;-74
2022/05/02 10:17:16;;;;;;;;;;;;;;;;;;5040811;28;19909;-73
2022/05/02 10:20:04;;;;;;;;;;;;;;;;;;5045328;28;20380;-75
2022/05/02 10:22:50;;;;;;;;;;;;;;;;;;5046490;28;19913;-74
2022/05/02 10:25:37;;;;;;;;;;;;;;;;;;5049373;28;19917;-74
2022/05/02 10:28:24;;;;;;;;;;;;;;;;;;5045159;28;19921;-73
2022/05/02 10:31:10;;;;;;;;;;;;;;;;;;5061748;28;19919;-73
2022/05/02 10:33:57;;;;;;;;;;;;;;;;;;5042785;28;19932;-74
2022/05/02 10:36:43;;;;;;;;;;;;;;;;;;5053089;28;19912;-75
2022/05/02 10:39:29;;;;;;;;;;;;;;;;;;5047116;28;19920;-73
2022/05/02 10:42:16;;;;;;;;;;;;;;;;;;5042774;28;19913;-74
2022/05/02 10:45:02;;;;;;;;;;;;;;;;;;5047925;28;20543;-75
2022/05/02 10:47:49;;;;;;;;;;;;;;;;;;5045797;28;19912;-75
2022/05/02 10:50:36;;;;;;;;;;;;;;;;;;5031835;28;20500;-73
2022/05/02 10:53:22;;;;;;;;;;;;;;;;;;5052951;28;19913;-73
2022/05/02 10:56:08;;;;;;;;;;;;;;;;;;5048352;28;19917;-74
2022/05/02 10:58:55;;;;;;;;;;;;;;;;;;5045619;28;19908;-74
2022/05/02 11:01:41;;;;;;;;;;;;;;;;;;5048561;28;19928;-74
2022/05/02 11:04:28;;;;;;;;;;;;;;;;;;5041612;28;20349;-77
2022/05/02 11:07:14;;;;;;;;;;;;;;;;;;5040071;28;19909;-73
2022/05/02 11:10:01;;;;;;;;;;;;;;;;;;5048277;28;20384;-73
2022/05/02 11:12:47;;;;;;;;;;;;;;;;;;5041314;28;19928;-74
2022/05/02 11:15:34;;;;;;;;;;;;;;;;;;5029755;28;19921;-73
2022/05/02 11:21:26;;;;;;;;;;;;;;;;;;5042712;28;19913;-74
2022/05/02 11:24:12;;;;;;;;;;;;;;;;;;5050302;28;19917;-74
2022/05/02 11:26:59;;;;;;;;;;;;;;;;;;5040418;28;19909;-73
2022/05/02 11:29:46;;;;;;;;;;;;;;;;;;5035280;28;19917;-73
2022/05/02 11:32:33;;;;;;;;;;;;;;;;;;5034477;28;19928;-76
2022/05/02 11:35:21;;;;;;;;;;;;;;;;;;5033488;28;20285;-73
2022/05/02 11:38:08;;;;;;;;;;;;;;;;;;5039467;28;19927;-73
2022/05/02 11:40:54;;;;;;;;;;;;;;;;;;5035934;28;19913;-73
2022/05/02 11:43:41;;;;;;;;;;;;;;;;;;5036896;28;19916;-74
2022/05/02 11:46:27;;;;;;;;;;;;;;;;;;5033169;28;20489;-74
2022/05/02 11:49:14;;;;;;;;;;;;;;;;;;5039903;28;19990;-75
2022/05/02 11:52:02;;;;;;;;;;;;;;;;;;5056853;28;19919;-76
2022/05/02 11:54:48;;;;;;;;;;;;;;;;;;5028773;28;19928;-75
2022/05/02 11:57:34;;;;;;;;;;;;;;;;;;5032279;28;19909;-74
2022/05/02 12:00:21;;;;;;;;;;;;;;;;;;5046084;28;19909;-75
2022/05/02 12:03:07;;;;;;;;;;;;;;;;;;5032322;28;19920;-75
2022/05/02 12:05:57;;;;;;;;;;;;;;;;;;5043062;28;19908;-75
2022/05/02 12:08:43;;;;;;;;;;;;;;;;;;5038889;28;19913;-76
2022/05/02 12:11:30;;;;;;;;;;;;;;;;;;5047947;28;19909;-75
2022/05/02 12:14:17;;;;;;;;;;;;;;;;;;5056857;28;19920;-75
2022/05/02 12:17:05;;;;;;;;;;;;;;;;;;5037188;28;19924;-76
2022/05/02 12:19:51;;;;;;;;;;;;;;;;;;5047864;28;19913;-74
2022/05/02 12:22:38;;;;;;;;;;;;;;;;;;5040580;28;19932;-74
2022/05/02 12:25:24;;;;;;;;;;;;;;;;;;5046863;28;19909;-75
2022/05/02 12:28:11;;;;;;;;;;;;;;;;;;5048300;28;20357;-74
2022/05/02 12:30:57;;;;;;;;;;;;;;;;;;5036569;28;20072;-74
2022/05/02 12:33:44;;;;;;;;;;;;;;;;;;5046470;28;20381;-75
2022/05/02 12:36:30;;;;;;;;;;;;;;;;;;5048043;28;20424;-75
2022/05/02 12:39:17;;;;;;;;;;;;;;;;;;5034199;28;19908;-75
2022/05/02 12:42:03;;;;;;;;;;;;;;;;;;5034059;28;19909;-75
2022/05/02 12:44:52;;;;;;;;;;;;;;;;;;5058218;28;19912;-75
2022/05/02 12:47:38;;;;;;;;;;;;;;;;;;5046110;28;19921;-75
2022/05/02 12:50:25;;;;;;;;;;;;;;;;;;5045928;28;20361;-74
2022/05/02 12:53:12;;;;;;;;;;;;;;;;;;5039604;28;19909;-74
2022/05/02 12:55:58;;;;;;;;;;;;;;;;;;5046974;28;19921;-74
2022/05/02 13:01:50;;;;;;;;;;;;;;;;;;5056636;28;19912;-75
2022/05/02 13:04:36;;;;;;;;;;;;;;;;;;5047624;28;19913;-74
2022/05/02 13:07:23;;;;;;;;;;;;;;;;;;5052749;28;19929;-76
2022/05/02 13:10:09;;;;;;;;;;;;;;;;;;5036998;28;19935;-74
2022/05/02 13:12:57;;;;;;;;;;;;;;;;;;5046793;28;19909;-75
2022/05/02 13:15:43;;;;;;;;;;;;;;;;;;5061653;28;20388;-73
2022/05/02 13:18:30;;;;;;;;;;;;;;;;;;5051287;28;19919;-76
2022/05/02 13:21:16;;;;;;;;;;;;;;;;;;5052693;28;19909;-76
2022/05/02 13:24:05;;;;;;;;;;;;;;;;;;5051990;28;19909;-76
2022/05/02 13:26:54;;;;;;;;;;;;;;;;;;5051715;28;20499;-76
2022/05/02 13:29:41;;;;;;;;;;;;;;;;;;5038857;28;19916;-75
2022/05/02 13:32:27;;;;;;;;;;;;;;;;;;5033683;28;20309;-75
2022/05/02 13:35:14;;;;;;;;;;;;;;;;;;5033434;28;19944;-75
2022/05/02 13:38:01;;;;;;;;;;;;;;;;;;5044624;28;20295;-76
2022/05/02 13:40:47;;;;;;;;;;;;;;;;;;5046226;28;20627;-74
2022/05/02 13:43:36;;;;;;;;;;;;;;;;;;5032732;28;19913;-76
2022/05/02 13:46:22;;;;;;;;;;;;;;;;;;5049911;28;19920;-76
2022/05/02 13:49:11;;;;;;;;;;;;;;;;;;5053857;28;19921;-75
2022/05/02 13:51:57;;;;;;;;;;;;;;;;;;5043934;28;20165;-75
2022/05/02 13:54:44;;;;;;;;;;;;;;;;;;5051092;28;20650;-74
2022/05/02 13:57:31;;;;;;;;;;;;;;;;;;5044297;28;19908;-74
2022/05/02 14:03:13;;;;;;;;;;;;;;;;;;5040960;28;19924;-74
2022/05/02 14:06:00;;;;;;;;;;;;;;;;;;5045109;28;19924;-75
2022/05/02 14:08:48;;;;;;;;;;;;;;;;;;5040989;28;19909;-74
2022/05/02 14:11:34;;;;;;;;;;;;;;;;;;5043047;28;20395;-74
2022/05/02 14:14:23;;;;;;;;;;;;;;;;;;5049535;28;19924;-73
2022/05/02 14:17:09;;;;;;;;;;;;;;;;;;5041533;28;20023;-77
2022/05/02 14:19:56;;;;;;;;;;;;;;;;;;5050295;28;19932;-74
2022/05/02 14:22:42;;;;;;;;;;;;;;;;;;5043081;28;19913;-73
2022/05/02 14:25:29;;;;;;;;;;;;;;;;;;5037721;28;19916;-73
2022/05/02 14:28:15;;;;;;;;;;;;;;;;;;5024408;28;19919;-74
2022/05/02 14:31:02;;;;;;;;;;;;;;;;;;5047431;28;19941;-74
2022/05/02 14:33:52;;;;;;;;;;;;;;;;;;5056778;28;20333;-74
2022/05/02 14:36:41;;;;;;;;;;;;;;;;;;5036808;28;19917;-73
2022/05/02 14:39:27;;;;;;;;;;;;;;;;;;5048578;28;19909;-73
2022/05/02 14:42:14;;;;;;;;;;;;;;;;;;5045571;28;19912;-73
2022/05/02 14:45:00;;;;;;;;;;;;;;;;;;5038012;28;19913;-73
2022/05/02 14:47:49;;;;;;;;;;;;;;;;;;5033858;28;19913;-73
2022/05/02 14:50:35;;;;;;;;;;;;;;;;;;5042472;28;19917;-73
2022/05/02 14:53:22;;;;;;;;;;;;;;;;;;5046929;28;19913;-73
2022/05/02 14:56:09;;;;;;;;;;;;;;;;;;5056237;28;20320;-74
2022/05/02 14:58:56;;;;;;;;;;;;;;;;;;5043025;28;19933;-75
2022/05/02 15:01:42;;;;;;;;;;;;;;;;;;5044194;28;19913;-74
2022/05/02 15:04:29;;;;;;;;;;;;;;;;;;5051275;28;20343;-73
2022/05/02 15:07:15;;;;;;;;;;;;;;;;;;5050522;28;19913;-73
2022/05/02 15:10:15;;;;;;;;;;;;;;;;;;5050011;28;19913;-74
2022/05/02 15:13:01;;;;;;;;;;;;;;;;;;5037260;28;20361;-73
2022/05/02 15:15:49;;;;;;;;;;;;;;;;;;5050494;28;19984;-73
2022/05/02 15:18:37;;;;;;;;;;;;;;;;;;5050875;28;19940;-74
2022/05/02 15:21:23;;;;;;;;;;;;;;;;;;5036150;28;20380;-73
2022/05/02 15:24:10;;;;;;;;;;;;;;;;;;5037770;28;19935;-74
2022/05/02 15:26:56;;;;;;;;;;;;;;;;;;5041907;28;19913;-74
2022/05/02 15:39:06;;;;;;;;;;;;;;;;;;5048645;28;19919;-73
2022/05/02 15:41:56;;;;;;;;;;;;;;;;;;5055820;28;19909;-74
2022/05/02 15:44:43;;;;;;;;;;;;;;;;;;5041153;28;20011;-74
2022/05/02 15:47:30;;;;;;;;;;;;;;;;;;5032514;28;19964;-74
2022/05/02 15:50:16;;;;;;;;;;;;;;;;;;5040350;28;19931;-74
2022/05/02 15:53:03;;;;;;;;;;;;;;;;;;5040229;28;19917;-73
2022/05/02 15:55:49;;;;;;;;;;;;;;;;;;5049135;28;19916;-75
2022/05/02 15:58:36;;;;;;;;;;;;;;;;;;5036916;28;19924;-72
2022/05/02 16:01:23;;;;;;;;;;;;;;;;;;5042388;28;20562;-74
2022/05/02 16:04:09;;;;;;;;;;;;;;;;;;5042573;28;20279;-74
2022/05/02 16:06:56;;;;;;;;;;;;;;;;;;5039646;28;19918;-74
2022/05/02 16:12:58;;;;;;;;;;;;;;;;;;5028393;28;19910;-75
2022/05/02 16:15:44;;;;;;;;;;;;;;;;;;5033096;28;19921;-73
2022/05/02 16:18:35;;;;;;;;;;;;;;;;;;5036040;28;20548;-76
2022/05/02 16:21:22;;;;;;;;;;;;;;;;;;5039559;28;19996;-77
2022/05/02 16:24:08;;;;;;;;;;;;;;;;;;5051202;28;19920;-75
2022/05/02 16:26:55;;;;;;;;;;;;;;;;;;5040437;28;19909;-75
2022/05/02 16:29:42;;;;;;;;;;;;;;;;;;5038764;28;19917;-76
2022/05/02 16:32:28;;;;;;;;;;;;;;;;;;5042137;28;19931;-75
2022/05/02 16:35:15;;;;;;;;;;;;;;;;;;5045639;28;19921;-75
2022/05/02 16:38:02;;;;;;;;;;;;;;;;;;5037059;28;19919;-76
2022/05/02 16:40:48;;;;;;;;;;;;;;;;;;5046152;28;20403;-75
2022/05/02 16:43:39;;;;;;;;;;;;;;;;;;5036457;28;19920;-75
2022/05/02 16:46:26;;;;;;;;;;;;;;;;;;5049879;28;20372;-74
2022/05/02 16:49:14;;;;;;;;;;;;;;;;;;5043658;28;19940;-74
2022/05/02 16:52:00;;;;;;;;;;;;;;;;;;5034932;28;19917;-74
2022/05/02 16:54:47;;;;;;;;;;;;;;;;;;5041391;28;19917;-73
2022/05/02 16:57:34;;;;;;;;;;;;;;;;;;5040340;28;19924;-73
2022/05/02 17:00:23;;;;;;;;;;;;;;;;;;5043750;28;19913;-74
2022/05/02 17:03:10;;;;;;;;;;;;;;;;;;5034692;28;20415;-75
2022/05/02 17:06:00;;;;;;;;;;;;;;;;;;5050294;28;20782;-74
2022/05/02 17:08:47;;;;;;;;;;;;;;;;;;5045973;28;19912;-73
2022/05/02 17:11:33;;;;;;;;;;;;;;;;;;5043681;28;19913;-73
2022/05/02 17:14:20;;;;;;;;;;;;;;;;;;5034813;28;19921;-74
2022/05/02 17:17:06;;;;;;;;;;;;;;;;;;5045115;28;19915;-74
2022/05/02 17:19:52;;;;;;;;;;;;;;;;;;5038603;28;19919;-80
2022/05/02 17:22:39;;;;;;;;;;;;;;;;;;5076817;28;19919;-90
2022/05/02 17:25:26;;;;;;;;;;;;;;;;;;5055631;28;20372;-92
2022/05/02 17:28:14;;;;;;;;;;;;;;;;;;5062480;28;19916;-90
2022/05/02 17:31:00;;;;;;;;;;;;;;;;;;5061060;28;19909;-96
2022/05/02 17:33:57;;;;;;;;;;;;;;;;;;;;;
2022/05/02 17:36:44;;;;;;;;;;;;;;;;;;5057338;28;19939;-91
2022/05/02 17:39:31;;;;;;;;;;;;;;;;;;5035902;28;19909;-91
2022/05/02 17:42:18;;;;;;;;;;;;;;;;;;5050098;28;19913;-90
2022/05/02 17:45:05;;;;;;;;;;;;;;;;;;5058853;28;19915;-90
2022/05/02 17:47:51;;;;;;;;;;;;;;;;;;5046098;28;19915;-90
2022/05/02 17:50:38;;;;;;;;;;;;;;;;;;5064695;28;20360;-90
2022/05/02 17:53:25;;;;;;;;;;;;;;;;;;5050589;28;19909;-91
2022/05/02 17:56:12;;;;;;;;;;;;;;;;;;5054775;28;19943;-90
2022/05/02 17:58:58;;;;;;;;;;;;;;;;;;5061789;28;19917;-92
2022/05/02 18:01:45;;;;;;;;;;;;;;;;;;5054122;28;19912;-91
2022/05/02 18:04:34;;;;;;;;;;;;;;;;;;5043800;28;19916;-90
2022/05/02 18:07:20;;;;;;;;;;;;;;;;;;5047202;28;19919;-89
2022/05/02 18:10:07;;;;;;;;;;;;;;;;;;5052034;28;19992;-89
2022/05/02 18:12:53;;;;;;;;;;;;;;;;;;5049931;28;20221;-89
2022/05/02 18:15:40;;;;;;;;;;;;;;;;;;5047945;28;19928;-89
2022/05/02 18:18:28;;;;;;;;;;;;;;;;;;5061892;28;19913;-87
2022/05/02 18:21:15;;;;;;;;;;;;;;;;;;5063606;28;19909;-88
2022/05/02 18:24:01;;;;;;;;;;;;;;;;;;5049735;28;19919;-87
2022/05/02 18:26:51;;;;;;;;;;;;;;;;;;5045876;28;19922;-89
2022/05/02 18:29:37;;;;;;;;;;;;;;;;;;5054076;28;19912;-88
2022/05/02 18:32:24;;;;;;;;;;;;;;;;;;5055670;28;19927;-89
2022/05/02 18:38:16;;;;;;;;;;;;;;;;;;5052558;28;19917;-89
2022/05/02 18:41:02;;;;;;;;;;;;;;;;;;5038822;28;19909;-87
2022/05/02 18:43:49;;;;;;;;;;;;;;;;;;5053792;28;19927;-91
2022/05/02 18:53:02;;;;;;;;;;;;;;;;;;5038478;28;19913;-82
2022/05/02 18:55:48;;;;;;;;;;;;;;;;;;5033888;28;19921;-79
2022/05/02 18:58:35;;;;;;;;;;;;;;;;;;5043329;28;20284;-82
2022/05/02 19:01:21;;;;;;;;;;;;;;;;;;5034044;28;19917;-85
2022/05/02 19:04:08;;;;;;;;;;;;;;;;;;5040878;28;19917;-89
2022/05/02 19:06:54;;;;;;;;;;;;;;;;;;5051896;28;19912;-84
2022/05/02 19:09:41;;;;;;;;;;;;;;;;;;5057434;28;19916;-82
2022/05/02 19:12:27;;;;;;;;;;;;;;;;;;5051692;28;19913;-81
2022/05/02 19:15:14;;;;;;;;;;;;;;;;;;5046196;28;19921;-85
2022/05/02 19:18:00;;;;;;;;;;;;;;;;;;5041740;28;19913;-84
2022/05/02 19:20:51;;;;;;;;;;;;;;;;;;5040736;28;19921;-83
2022/05/02 19:23:38;;;;;;;;;;;;;;;;;;5052911;28;19909;-83
2022/05/02 19:26:25;;;;;;;;;;;;;;;;;;5047398;28;19917;-82
2022/05/02 19:29:12;;;;;;;;;;;;;;;;;;5038489;28;19909;-82
2022/05/02 19:31:59;;;;;;;;;;;;;;;;;;5036255;28;20070;-81
2022/05/02 19:40:56;;;;;;;;;;;;;;;;;;5028118;28;20377;-81
2022/05/02 19:43:42;;;;;;;;;;;;;;;;;;5032951;28;19909;-81
2022/05/02 19:46:29;;;;;;;;;;;;;;;;;;5034598;28;19936;-83
2022/05/02 19:49:18;;;;;;;;;;;;;;;;;;5047242;28;19920;-82
2022/05/02 19:52:05;;;;;;;;;;;;;;;;;;5034165;28;19920;-81
2022/05/02 19:54:53;;;;;;;;;;;;;;;;;;5036210;28;19921;-82
2022/05/02 19:57:39;;;;;;;;;;;;;;;;;;5035771;28;19920;-81